الصفحة الرئيسية
METAR-TAF:

METAR-TAF

مطار :

Imperial Municipal Airport

إمبريال, نبراسكا, الولايات المتحدة

دائرة عرض: 40-31N, خط طول: 101-37W, ارتفاع: 997 متر

مراقبة الطقس الحالي

تاريخ ووقت الإصدار 14 دقيقة قبل الساعة 18:53UTC
ريح 4 عقدة من الشمال/الشمال الشرقي
درجة الحرارة 26°درجة مئوية
الرطوبة 61%
ضغط 1017 hPa
الرؤية: 16.1 كم
غيوم متفرقة على ارتفاع 4200 قدم
غيوم مفككة على ارتفاع 5000 قدم

METAR: KIML 141853Z AUTO 02004KT 10SM SCT042 BKN050 26/18 A3004 RMK AO2 SLP145 T02610178

زمن: 13:07 (19:07 UTC)


TAF: مفقودة

أرصاد الطقس والتوقعات من أكثر من 4000 مطار (تقارير الطقس للمطار METAR والتنبؤ بالطقس بالمطارTAF).

المحطات المتاحة هي النقط الصفراء والحمراء على الخريطة.

حرك المؤشر فوق النقطة لمعرفة اسم المحطة.

ثم انقر لمعرفة أرصاد وتوقعات الطقس.

لتغيير الخارطة: اضغط على الأزرار الخضراء مع رمز الصليب الأسود للتكبير. على الزر الأخضر مع شرطة للتصغير، أو على الأسهم الخضراء للخرائط المجاورة.


METAR-TAF: